Time;durP1;ratioP1;P1;durP2;ratioP2;P2;SDS_P1;SDS_P2;PMS_P1;PMS_P2;Temp;Humidity;BMP_temperature;BMP_pressure;BME280_temperature;BME280_humidity;BME280_pressure;Samples;Min_cycle;Max_cycle;Signal;HPM_P1;HPM_P2
2023/12/14 00:00:18;;;;;;;126.63;36.17;;;3.60;99.90;;;;;;5204944;28;20480;-52
2023/12/14 00:02:48;;;;;;;121.70;37.33;;;3.50;99.90;;;;;;5203939;28;20180;-51
2023/12/14 00:05:19;;;;;;;116.80;35.17;;;3.50;99.90;;;;;;5199737;28;20453;-52
2023/12/14 00:07:50;;;;;;;92.13;29.47;;;3.50;99.90;;;;;;5202541;28;20210;-52
2023/12/14 00:10:21;;;;;;;108.00;34.13;;;3.40;99.90;;;;;;5204743;28;20250;-52
2023/12/14 00:12:53;;;;;;;110.77;35.40;;;3.40;99.90;;;;;;5200061;28;20669;-51
2023/12/14 00:15:23;;;;;;;151.20;38.80;;;3.40;99.90;;;;;;5203995;28;20423;-51
2023/12/14 00:17:54;;;;;;;149.47;37.97;;;3.40;99.90;;;;;;5204919;28;20441;-51
2023/12/14 00:20:24;;;;;;;120.30;33.83;;;3.40;99.90;;;;;;5202786;28;20181;-55
2023/12/14 00:22:55;;;;;;;107.20;32.13;;;3.50;99.90;;;;;;5202241;28;20184;-55
2023/12/14 00:25:26;;;;;;;132.83;34.27;;;3.50;99.90;;;;;;5203192;28;20187;-55
2023/12/14 00:27:56;;;;;;;99.23;31.83;;;3.50;99.90;;;;;;5201814;28;20267;-56
2023/12/14 00:30:27;;;;;;;105.13;33.67;;;3.50;99.90;;;;;;5201920;28;20188;-51
2023/12/14 00:32:57;;;;;;;113.20;32.83;;;3.40;99.90;;;;;;5202234;28;20207;-53
2023/12/14 00:35:28;;;;;;;145.10;38.40;;;3.40;99.90;;;;;;5202290;28;20191;-55
2023/12/14 00:37:59;;;;;;;105.67;31.90;;;3.30;99.90;;;;;;5205620;28;20176;-54
2023/12/14 00:40:30;;;;;;;93.33;33.07;;;3.40;99.90;;;;;;5202199;28;20233;-55
2023/12/14 00:43:00;;;;;;;111.33;34.30;;;3.40;99.90;;;;;;5209533;28;20175;-55
2023/12/14 00:45:31;;;;;;;187.80;42.37;;;3.40;99.90;;;;;;5203544;28;20187;-56
2023/12/14 00:48:01;;;;;;;110.70;34.13;;;3.40;99.90;;;;;;5202873;28;20664;-54
2023/12/14 00:50:32;;;;;;;106.83;32.60;;;3.40;99.90;;;;;;5204334;28;20180;-57
2023/12/14 00:53:03;;;;;;;130.37;36.40;;;3.40;99.90;;;;;;5204953;28;20660;-56
2023/12/14 00:55:33;;;;;;;72.63;29.40;;;3.40;99.90;;;;;;5201920;28;20176;-56
2023/12/14 00:58:04;;;;;;;111.80;31.70;;;3.30;99.90;;;;;;5201961;28;20216;-56
2023/12/14 01:00:34;;;;;;;113.53;33.17;;;3.30;99.90;;;;;;5204257;28;20191;-54
2023/12/14 01:03:05;;;;;;;112.20;33.40;;;3.30;99.90;;;;;;5204796;28;20241;-55
2023/12/14 01:05:36;;;;;;;89.83;29.33;;;3.20;99.90;;;;;;5202823;28;20203;-56
2023/12/14 01:08:06;;;;;;;84.33;30.50;;;3.20;99.90;;;;;;5200753;28;20180;-57
2023/12/14 01:10:37;;;;;;;87.77;29.13;;;3.10;99.90;;;;;;5198660;28;20538;-54
2023/12/14 01:13:07;;;;;;;154.17;38.60;;;3.10;99.90;;;;;;5201423;28;20212;-54
2023/12/14 01:15:38;;;;;;;102.63;31.50;;;3.10;99.90;;;;;;5203856;28;20207;-51
2023/12/14 01:18:09;;;;;;;72.37;26.30;;;3.10;99.90;;;;;;5202923;28;20233;-55
2023/12/14 01:20:39;;;;;;;76.63;29.00;;;3.10;99.90;;;;;;5203495;28;20187;-55
2023/12/14 01:23:10;;;;;;;61.50;24.90;;;3.10;99.90;;;;;;5204204;28;20270;-56
2023/12/14 01:25:41;;;;;;;55.10;23.43;;;3.10;99.90;;;;;;5204005;28;20207;-54
2023/12/14 01:28:13;;;;;;;47.10;20.83;;;3.00;99.90;;;;;;5200360;28;20188;-53
2023/12/14 01:30:44;;;;;;;60.20;25.00;;;3.00;99.90;;;;;;5201114;28;21192;-52
2023/12/14 01:33:15;;;;;;;71.10;24.37;;;2.90;99.90;;;;;;5217732;28;20455;-54
2023/12/14 01:35:45;;;;;;;100.57;28.70;;;2.90;99.90;;;;;;5201545;28;20214;-55
2023/12/14 01:38:16;;;;;;;60.37;22.83;;;2.80;99.90;;;;;;5202155;28;20262;-54
2023/12/14 01:40:46;;;;;;;79.67;25.73;;;2.90;99.90;;;;;;5203519;28;20257;-55
2023/12/14 01:43:17;;;;;;;91.93;27.57;;;2.90;99.90;;;;;;5201577;28;20183;-53
2023/12/14 01:45:48;;;;;;;70.77;23.53;;;2.90;99.90;;;;;;5202442;28;20611;-53
2023/12/14 01:48:18;;;;;;;45.23;20.87;;;2.90;99.90;;;;;;5203630;28;20264;-54
2023/12/14 01:50:49;;;;;;;64.77;21.37;;;2.90;99.90;;;;;;5202583;28;20279;-54
2023/12/14 01:53:20;;;;;;;60.17;22.60;;;2.80;99.90;;;;;;5202729;28;20207;-55
2023/12/14 01:55:50;;;;;;;50.27;21.00;;;2.80;99.90;;;;;;5201827;28;20558;-54
2023/12/14 01:58:21;;;;;;;57.30;20.60;;;2.90;99.90;;;;;;5202669;28;20632;-55
2023/12/14 02:01:07;;;;;;;71.63;24.60;;;2.80;99.90;;;;;;5202327;28;20540;-53
2023/12/14 02:03:48;;;;;;;69.00;25.77;;;2.80;99.90;;;;;;5205826;28;20180;-52
2023/12/14 02:06:18;;;;;;;82.10;25.63;;;2.70;99.90;;;;;;5203254;28;20458;-54
2023/12/14 02:08:49;;;;;;;79.53;25.93;;;2.80;99.90;;;;;;5203458;28;20488;-54
2023/12/14 02:11:20;;;;;;;46.10;20.73;;;2.80;99.90;;;;;;5203276;28;20210;-54
2023/12/14 02:13:50;;;;;;;64.87;24.27;;;2.70;99.90;;;;;;5202618;28;20563;-55
2023/12/14 02:16:21;;;;;;;57.53;23.47;;;2.80;99.90;;;;;;5205332;28;20721;-54
2023/12/14 02:18:52;;;;;;;58.63;22.53;;;2.80;99.90;;;;;;5201158;28;20186;-50
2023/12/14 02:21:22;;;;;;;62.23;24.60;;;2.70;99.90;;;;;;5201777;28;20234;-55
2023/12/14 02:23:53;;;;;;;88.07;29.00;;;2.70;99.90;;;;;;5203000;28;20184;-54
2023/12/14 02:26:23;;;;;;;48.33;22.33;;;2.70;99.90;;;;;;5206051;28;20545;-55
2023/12/14 02:28:54;;;;;;;63.63;25.33;;;2.80;99.90;;;;;;5205851;28;20183;-55
2023/12/14 02:31:25;;;;;;;78.47;28.10;;;2.70;99.90;;;;;;5200838;28;20191;-53
2023/12/14 02:33:55;;;;;;;69.07;26.10;;;2.70;99.90;;;;;;5204972;28;20288;-54
2023/12/14 02:36:26;;;;;;;59.93;25.10;;;2.70;99.90;;;;;;5206333;28;20238;-54
2023/12/14 02:38:57;;;;;;;84.60;27.80;;;2.70;99.90;;;;;;5206537;28;20202;-55
2023/12/14 02:41:27;;;;;;;58.90;25.30;;;2.70;99.90;;;;;;5206315;28;20188;-54
2023/12/14 02:43:58;;;;;;;54.47;21.40;;;2.70;99.90;;;;;;5205911;28;20643;-55
2023/12/14 02:46:28;;;;;;;104.10;28.67;;;2.70;99.90;;;;;;5206882;28;20612;-53
2023/12/14 02:48:59;;;;;;;92.80;28.60;;;2.70;99.90;;;;;;5206892;28;20585;-53
2023/12/14 02:51:30;;;;;;;67.70;26.60;;;2.70;99.90;;;;;;5205277;28;20184;-54
2023/12/14 02:54:00;;;;;;;55.23;23.47;;;2.60;99.90;;;;;;5200987;28;20554;-54
2023/12/14 02:56:31;;;;;;;79.37;28.00;;;2.70;99.90;;;;;;5203191;28;20228;-55
2023/12/14 02:59:01;;;;;;;57.67;23.60;;;2.60;99.90;;;;;;5204151;28;20195;-53
2023/12/14 03:01:32;;;;;;;92.97;30.30;;;2.60;99.90;;;;;;5203133;28;20227;-53
2023/12/14 03:04:03;;;;;;;67.80;25.00;;;2.60;99.90;;;;;;5200488;28;20616;-53
2023/12/14 03:06:33;;;;;;;59.63;24.77;;;2.60;99.90;;;;;;5220891;28;20222;-51
2023/12/14 03:09:04;;;;;;;88.07;29.30;;;2.60;99.90;;;;;;5204394;28;20180;-51
2023/12/14 03:11:34;;;;;;;63.87;25.80;;;2.60;99.90;;;;;;5205758;28;20187;-52
2023/12/14 03:14:05;;;;;;;65.40;25.87;;;2.60;99.90;;;;;;5205457;28;20273;-52
2023/12/14 03:16:36;;;;;;;87.37;28.77;;;2.60;99.90;;;;;;5201444;28;20537;-53
2023/12/14 03:19:06;;;;;;;69.97;25.70;;;2.60;99.90;;;;;;5204181;28;20547;-50
2023/12/14 03:21:37;;;;;;;69.77;26.43;;;2.60;99.90;;;;;;5203665;28;20187;-52
2023/12/14 03:24:09;;;;;;;67.40;23.00;;;2.70;99.90;;;;;;5209782;28;20278;-52
2023/12/14 03:26:39;;;;;;;70.33;26.80;;;2.70;99.90;;;;;;5204892;28;20349;-51
2023/12/14 03:29:10;;;;;;;79.03;27.67;;;2.70;99.90;;;;;;5204574;28;20438;-52
2023/12/14 03:31:41;;;;;;;64.40;24.73;;;2.70;99.90;;;;;;5202998;28;20184;-51
2023/12/14 03:34:12;;;;;;;60.57;25.20;;;2.60;99.90;;;;;;5206343;28;20268;-51
2023/12/14 03:36:42;;;;;;;76.20;27.03;;;2.60;99.90;;;;;;5197926;28;20256;-52
2023/12/14 03:39:13;;;;;;;61.23;23.53;;;2.60;99.90;;;;;;5203524;28;20438;-51
2023/12/14 03:41:44;;;;;;;102.90;29.60;;;2.60;99.90;;;;;;5205021;28;20191;-51
2023/12/14 03:44:15;;;;;;;100.30;28.77;;;2.60;99.90;;;;;;5202304;28;20180;-52
2023/12/14 03:46:45;;;;;;;89.57;27.43;;;2.60;99.90;;;;;;5203281;28;20455;-51
2023/12/14 03:49:16;;;;;;;51.83;21.60;;;2.70;99.90;;;;;;5204970;28;20321;-50
2023/12/14 03:51:47;;;;;;;66.37;24.37;;;2.70;99.90;;;;;;5200883;28;20198;-51
2023/12/14 03:54:17;;;;;;;37.67;19.70;;;2.60;99.90;;;;;;5203935;28;20187;-51
2023/12/14 03:56:48;;;;;;;50.17;21.73;;;2.60;99.90;;;;;;5204689;28;20527;-51
2023/12/14 03:59:19;;;;;;;61.93;23.97;;;2.60;99.90;;;;;;5205172;28;20190;-51
2023/12/14 04:01:49;;;;;;;52.60;20.87;;;2.60;99.90;;;;;;5199606;28;20717;-52
2023/12/14 04:04:20;;;;;;;70.97;23.00;;;2.70;99.90;;;;;;5201624;28;20219;-50
2023/12/14 04:06:51;;;;;;;97.83;27.43;;;2.60;99.90;;;;;;5215324;22;20749;-52
2023/12/14 04:09:21;;;;;;;61.83;23.17;;;2.70;99.90;;;;;;5204390;28;20191;-51
2023/12/14 04:11:52;;;;;;;40.23;19.37;;;2.60;99.90;;;;;;5201554;28;20434;-52
2023/12/14 04:14:23;;;;;;;62.67;23.13;;;2.60;99.90;;;;;;5205310;28;20253;-51
2023/12/14 04:16:54;;;;;;;52.50;22.60;;;2.60;99.90;;;;;;5203077;28;20699;-51
2023/12/14 04:19:25;;;;;;;76.77;26.17;;;2.60;99.90;;;;;;5208841;28;20180;-51
2023/12/14 04:21:56;;;;;;;47.50;22.30;;;2.60;99.90;;;;;;5209621;28;20423;-52
2023/12/14 04:24:27;;;;;;;48.93;21.00;;;2.60;99.90;;;;;;5205490;28;20434;-52
2023/12/14 04:26:58;;;;;;;70.03;23.37;;;2.70;99.90;;;;;;5202353;28;20198;-53
2023/12/14 04:29:29;;;;;;;45.57;19.33;;;2.70;99.90;;;;;;5206218;28;20473;-51
2023/12/14 04:31:59;;;;;;;90.63;28.17;;;2.70;99.90;;;;;;5201831;28;20636;-52
2023/12/14 04:34:30;;;;;;;86.30;25.63;;;2.70;99.90;;;;;;5202356;28;20179;-51
2023/12/14 04:37:01;;;;;;;54.93;20.50;;;2.80;99.90;;;;;;5205013;28;20606;-52
2023/12/14 04:39:32;;;;;;;90.87;27.63;;;2.70;99.90;;;;;;5202145;28;20179;-51
2023/12/14 04:42:03;;;;;;;60.63;22.97;;;2.70;99.90;;;;;;5205193;28;20188;-51
2023/12/14 04:44:34;;;;;;;55.33;21.80;;;2.70;99.90;;;;;;5204871;28;20453;-52
2023/12/14 04:47:05;;;;;;;60.90;23.80;;;2.70;99.90;;;;;;5207087;28;20204;-51
2023/12/14 04:49:35;;;;;;;46.30;19.90;;;2.70;99.90;;;;;;5213477;28;20446;-51
2023/12/14 04:52:06;;;;;;;65.50;25.63;;;2.70;99.90;;;;;;5205015;28;20660;-54
2023/12/14 04:54:40;;;;;;;66.07;26.20;;;2.70;99.90;;;;;;5204567;28;20179;-52
2023/12/14 04:57:10;;;;;;;58.60;23.73;;;2.80;99.90;;;;;;5208914;28;20560;-52
2023/12/14 04:59:42;;;;;;;101.40;30.90;;;2.80;99.90;;;;;;5204066;28;20431;-53
2023/12/14 05:02:13;;;;;;;87.20;27.50;;;2.70;99.90;;;;;;5203629;28;20192;-53
2023/12/14 05:04:43;;;;;;;79.70;26.90;;;2.80;99.90;;;;;;5203618;28;20435;-51
2023/12/14 05:07:15;;;;;;;64.87;23.93;;;2.80;99.90;;;;;;5203974;28;20211;-52
2023/12/14 05:09:46;;;;;;;54.03;21.93;;;2.80;99.90;;;;;;5204201;28;20208;-54
2023/12/14 05:12:16;;;;;;;79.70;28.77;;;2.80;99.90;;;;;;5204515;28;21808;-52
2023/12/14 05:14:47;;;;;;;93.93;29.70;;;2.80;99.90;;;;;;5211195;28;20187;-51
2023/12/14 05:17:18;;;;;;;51.97;25.03;;;2.80;99.90;;;;;;5199176;28;20203;-52
2023/12/14 05:19:49;;;;;;;59.80;24.27;;;2.80;99.90;;;;;;5205830;28;20183;-53
2023/12/14 05:22:20;;;;;;;101.87;30.77;;;2.80;99.90;;;;;;5207411;28;20188;-55
2023/12/14 05:24:51;;;;;;;49.33;23.93;;;2.80;99.90;;;;;;5208901;28;20857;-53
2023/12/14 05:27:21;;;;;;;70.53;24.20;;;2.80;99.90;;;;;;5201436;28;20200;-52
2023/12/14 05:29:52;;;;;;;59.27;24.67;;;2.80;99.90;;;;;;5199363;28;20199;-53
2023/12/14 05:32:23;;;;;;;102.17;31.87;;;2.80;99.90;;;;;;5202731;28;20211;-51
2023/12/14 05:34:54;;;;;;;48.80;23.27;;;2.80;99.90;;;;;;5204153;28;20184;-50
2023/12/14 05:37:25;;;;;;;56.67;22.90;;;2.80;99.90;;;;;;5203532;28;20203;-53
2023/12/14 05:39:55;;;;;;;76.17;27.97;;;2.90;99.90;;;;;;5207421;28;20179;-51
2023/12/14 05:42:26;;;;;;;88.80;29.30;;;2.90;99.90;;;;;;5204202;28;20446;-51
2023/12/14 05:44:57;;;;;;;80.63;29.03;;;2.90;99.90;;;;;;5204874;28;20184;-53
2023/12/14 05:47:35;;;;;;;39.63;20.77;;;2.80;99.90;;;;;;5204097;28;20235;-53
2023/12/14 05:50:09;;;;;;;50.33;23.40;;;2.90;99.90;;;;;;5208148;28;20182;-51
2023/12/14 05:52:50;;;;;;;47.33;22.43;;;2.80;99.90;;;;;;5205889;28;20478;-52
2023/12/14 05:55:21;;;;;;;60.33;25.43;;;2.80;99.90;;;;;;5210002;28;20421;-51
2023/12/14 05:57:54;;;;;;;73.57;25.10;;;2.80;99.90;;;;;;5202876;28;20550;-51
2023/12/14 06:00:24;;;;;;;86.27;29.90;;;2.80;99.90;;;;;;5202343;28;20474;-51
2023/12/14 06:02:55;;;;;;;76.10;27.00;;;2.80;99.90;;;;;;5197763;28;20485;-50
2023/12/14 06:05:27;;;;;;;42.17;20.73;;;2.80;99.90;;;;;;5203459;28;20187;-52
2023/12/14 06:07:58;;;;;;;48.47;25.00;;;2.80;99.90;;;;;;5197135;28;20467;-52
2023/12/14 06:10:30;;;;;;;69.00;25.30;;;2.70;99.90;;;;;;5206386;28;20995;-54
2023/12/14 06:13:00;;;;;;;77.00;29.90;;;2.70;99.90;;;;;;5204930;28;20199;-51
2023/12/14 06:15:31;;;;;;;62.83;26.87;;;2.80;99.90;;;;;;5198607;28;20437;-53
2023/12/14 06:18:02;;;;;;;51.10;24.27;;;2.80;99.90;;;;;;5203108;28;20206;-51
2023/12/14 06:20:32;;;;;;;58.77;26.47;;;2.80;99.90;;;;;;5200317;28;20275;-57
2023/12/14 06:23:03;;;;;;;62.67;25.13;;;2.80;99.90;;;;;;5205414;28;20205;-53
2023/12/14 06:25:34;;;;;;;86.17;30.23;;;2.80;99.90;;;;;;5206545;28;20179;-52
2023/12/14 06:28:04;;;;;;;60.97;25.00;;;2.80;99.90;;;;;;5200133;28;20218;-52
2023/12/14 06:30:35;;;;;;;52.73;21.70;;;2.80;99.90;;;;;;5197219;28;20285;-55
2023/12/14 06:33:05;;;;;;;50.27;22.93;;;2.80;99.90;;;;;;5203162;28;20196;-51
2023/12/14 06:35:36;;;;;;;46.07;22.20;;;2.80;99.90;;;;;;5205123;28;20179;-51
2023/12/14 06:38:07;;;;;;;56.17;25.07;;;2.80;99.90;;;;;;5203054;28;20184;-53
2023/12/14 06:40:38;;;;;;;93.00;31.27;;;2.80;99.90;;;;;;5202520;28;20180;-54
2023/12/14 06:43:08;;;;;;;53.17;24.17;;;2.80;99.90;;;;;;5217434;28;20188;-52
2023/12/14 06:45:39;;;;;;;80.03;29.17;;;2.80;99.90;;;;;;5203142;28;20249;-53
2023/12/14 06:48:10;;;;;;;37.73;20.20;;;2.80;99.90;;;;;;5209063;28;20179;-52
2023/12/14 06:50:41;;;;;;;60.70;25.90;;;2.80;99.90;;;;;;5205238;28;20434;-52
2023/12/14 06:53:12;;;;;;;84.17;28.10;;;2.80;99.90;;;;;;5201546;28;20689;-52
2023/12/14 06:55:42;;;;;;;58.30;25.27;;;2.80;99.90;;;;;;5206287;28;20190;-53
2023/12/14 06:58:13;;;;;;;76.00;29.67;;;2.80;99.90;;;;;;5212465;28;20211;-52
2023/12/14 07:00:44;;;;;;;75.37;26.57;;;2.70;99.90;;;;;;5207509;28;20179;-52
2023/12/14 07:03:15;;;;;;;63.87;25.40;;;2.80;99.90;;;;;;5203515;28;20187;-52
2023/12/14 07:05:45;;;;;;;92.73;29.37;;;2.80;99.90;;;;;;5201219;28;20608;-51
2023/12/14 07:08:16;;;;;;;71.57;24.90;;;2.80;99.90;;;;;;5202483;28;20215;-52
2023/12/14 07:10:47;;;;;;;55.00;23.87;;;2.80;99.90;;;;;;5199575;28;20664;-53
2023/12/14 07:13:17;;;;;;;79.10;27.77;;;2.80;99.90;;;;;;5206891;28;20238;-53
2023/12/14 07:15:48;;;;;;;71.10;28.60;;;2.80;99.90;;;;;;5204273;28;20188;-54
2023/12/14 07:18:19;;;;;;;70.13;26.20;;;2.80;99.90;;;;;;5207808;28;20176;-54
2023/12/14 07:20:50;;;;;;;57.07;23.83;;;2.80;99.90;;;;;;5190705;28;20179;-53
2023/12/14 07:23:20;;;;;;;67.83;26.77;;;2.80;99.90;;;;;;5206989;28;20774;-53
2023/12/14 07:25:51;;;;;;;71.27;27.30;;;2.90;99.90;;;;;;5210319;28;20188;-52
2023/12/14 07:28:22;;;;;;;54.50;24.80;;;2.90;99.90;;;;;;5207960;28;20644;-52
2023/12/14 07:30:53;;;;;;;54.33;22.50;;;2.90;99.90;;;;;;5201203;28;20202;-52
2023/12/14 07:33:24;;;;;;;76.67;28.07;;;2.90;99.90;;;;;;5190101;28;20545;-55
2023/12/14 07:35:55;;;;;;;84.23;29.50;;;2.90;99.90;;;;;;5206161;28;20599;-52
2023/12/14 07:38:26;;;;;;;82.27;27.97;;;2.80;99.90;;;;;;5204940;28;20519;-52
2023/12/14 07:40:57;;;;;;;80.93;29.50;;;2.80;99.90;;;;;;5206889;28;20438;-51
2023/12/14 07:43:28;;;;;;;72.17;27.80;;;2.80;99.90;;;;;;5205543;28;20183;-54
2023/12/14 07:45:58;;;;;;;81.43;30.00;;;2.80;99.90;;;;;;5203825;28;20972;-54
2023/12/14 07:48:29;;;;;;;67.63;28.43;;;2.80;99.90;;;;;;5210714;28;20266;-54
2023/12/14 07:51:00;;;;;;;70.67;29.57;;;2.80;99.90;;;;;;5201832;28;20180;-53
2023/12/14 07:53:30;;;;;;;92.80;32.97;;;2.80;99.90;;;;;;5204634;28;20527;-53
2023/12/14 07:56:02;;;;;;;75.17;31.17;;;2.80;99.90;;;;;;5205800;28;20200;-51
2023/12/14 07:58:33;;;;;;;55.93;26.93;;;2.80;99.90;;;;;;5205540;28;20183;-52
2023/12/14 08:01:04;;;;;;;75.77;31.40;;;2.80;99.90;;;;;;5206046;28;20956;-52
2023/12/14 08:03:35;;;;;;;69.40;29.90;;;2.80;99.90;;;;;;5204334;28;20188;-51
2023/12/14 08:06:06;;;;;;;76.00;31.90;;;2.80;99.90;;;;;;5205374;28;20946;-52
2023/12/14 08:08:37;;;;;;;101.53;34.43;;;2.80;99.90;;;;;;5204699;28;20446;-53
2023/12/14 08:11:08;;;;;;;108.93;36.97;;;2.80;99.90;;;;;;5203095;28;20840;-52
2023/12/14 08:13:39;;;;;;;68.60;28.00;;;2.90;99.90;;;;;;5207199;28;20473;-53
2023/12/14 08:16:11;;;;;;;69.73;29.60;;;2.80;99.90;;;;;;5203623;28;20203;-52
2023/12/14 08:18:42;;;;;;;75.73;30.07;;;2.90;99.90;;;;;;5202919;28;20187;-52
2023/12/14 08:21:12;;;;;;;96.37;34.00;;;2.90;99.90;;;;;;5194518;28;20444;-55
2023/12/14 08:23:46;;;;;;;90.10;32.30;;;2.90;99.90;;;;;;5201164;28;20187;-54
2023/12/14 08:26:16;;;;;;;90.40;34.07;;;3.00;99.90;;;;;;5202685;28;20579;-52
2023/12/14 08:28:47;;;;;;;109.13;37.70;;;3.10;99.90;;;;;;5206650;28;20473;-52
2023/12/14 08:31:18;;;;;;;114.30;38.90;;;3.10;99.90;;;;;;5205803;28;20187;-53
2023/12/14 08:33:48;;;;;;;114.67;38.93;;;3.10;99.90;;;;;;5201927;28;20318;-53
2023/12/14 08:36:20;;;;;;;64.70;29.20;;;3.10;99.90;;;;;;5198457;28;20218;-53
2023/12/14 08:38:50;;;;;;;82.07;34.63;;;3.20;99.90;;;;;;5187435;28;20681;-50
2023/12/14 08:41:21;;;;;;;85.60;30.17;;;3.20;99.90;;;;;;5201519;28;20537;-53
2023/12/14 08:43:52;;;;;;;60.13;28.83;;;3.20;99.90;;;;;;5207847;28;20546;-51
2023/12/14 08:46:23;;;;;;;57.20;26.83;;;3.20;99.90;;;;;;5205038;28;20215;-53
2023/12/14 08:48:53;;;;;;;93.53;34.20;;;3.20;99.90;;;;;;5203337;28;20188;-51
2023/12/14 08:51:26;;;;;;;123.93;37.90;;;3.20;99.90;;;;;;5204202;28;20192;-50
2023/12/14 08:53:57;;;;;;;52.63;27.10;;;3.20;99.90;;;;;;5205788;28;20246;-54
2023/12/14 08:56:28;;;;;;;56.20;28.23;;;3.20;99.90;;;;;;5203646;28;20490;-55
2023/12/14 08:59:03;;;;;;;74.87;31.57;;;3.20;99.90;;;;;;5201133;28;20180;-53
2023/12/14 09:01:36;;;;;;;104.23;35.60;;;3.20;99.90;;;;;;5202337;28;20235;-50
2023/12/14 09:04:07;;;;;;;51.00;25.90;;;3.20;99.90;;;;;;5204143;28;20792;-51
2023/12/14 09:06:40;;;;;;;74.20;30.67;;;3.10;99.90;;;;;;5201586;28;20479;-53
2023/12/14 09:09:11;;;;;;;59.30;25.93;;;3.10;99.90;;;;;;5201919;28;20712;-51
2023/12/14 09:11:42;;;;;;;72.13;30.13;;;3.20;99.90;;;;;;5208286;28;20530;-51
2023/12/14 09:14:13;;;;;;;69.07;29.50;;;3.10;99.90;;;;;;5206680;28;20215;-52
2023/12/14 09:16:44;;;;;;;108.57;33.60;;;3.10;99.90;;;;;;5210709;28;20203;-52
2023/12/14 09:19:15;;;;;;;68.80;29.10;;;3.10;99.90;;;;;;5204324;28;20176;-51
2023/12/14 09:21:51;;;;;;;65.63;27.77;;;3.10;99.90;;;;;;5202936;28;20465;-51
2023/12/14 09:24:22;;;;;;;60.93;28.07;;;3.10;99.90;;;;;;5204236;28;20496;-51
2023/12/14 09:26:53;;;;;;;85.63;30.40;;;3.10;99.90;;;;;;5211545;28;20465;-51
2023/12/14 09:29:23;;;;;;;63.13;27.90;;;3.10;99.90;;;;;;5206053;28;20227;-52
2023/12/14 09:31:54;;;;;;;65.50;27.03;;;3.10;99.90;;;;;;5201940;28;20180;-50
2023/12/14 09:34:25;;;;;;;89.97;30.80;;;3.10;99.90;;;;;;5201508;28;20543;-51
2023/12/14 09:36:56;;;;;;;80.37;30.57;;;3.20;99.90;;;;;;5204753;28;20210;-50
2023/12/14 09:39:27;;;;;;;97.33;30.83;;;3.20;99.90;;;;;;5200398;28;20192;-51
2023/12/14 09:42:04;;;;;;;118.20;35.00;;;3.30;99.90;;;;;;5203785;28;20184;-53
2023/12/14 09:44:37;;;;;;;84.00;31.77;;;3.40;99.90;;;;;;5202090;28;20434;-51
2023/12/14 09:47:08;;;;;;;53.57;24.10;;;3.30;99.90;;;;;;5204691;28;20449;-52
2023/12/14 09:49:44;;;;;;;52.73;24.93;;;3.30;99.90;;;;;;5200288;28;20561;-52
2023/12/14 09:52:15;;;;;;;66.93;25.63;;;3.30;99.90;;;;;;5203576;28;20521;-51
2023/12/14 09:54:47;;;;;;;57.80;26.00;;;3.30;99.90;;;;;;5199380;28;20470;-51
2023/12/14 09:57:21;;;;;;;44.63;21.97;;;3.30;99.90;;;;;;5199886;28;20874;-51
2023/12/14 09:59:58;;;;;;;72.77;27.47;;;3.10;99.90;;;;;;5204177;28;20281;-50
2023/12/14 10:02:28;;;;;;;49.20;24.63;;;3.10;99.90;;;;;;5199912;28;20482;-51
2023/12/14 10:04:59;;;;;;;47.20;23.70;;;3.10;99.90;;;;;;5202640;28;20913;-51
2023/12/14 10:07:34;;;;;;;71.33;28.03;;;3.20;99.90;;;;;;5202765;28;20219;-51
2023/12/14 10:10:15;;;;;;;58.97;27.30;;;3.10;99.90;;;;;;5199248;28;20203;-52
2023/12/14 10:12:55;;;;;;;129.23;35.23;;;3.10;99.90;;;;;;5203825;28;20465;-51
2023/12/14 10:15:26;;;;;;;76.77;29.90;;;3.20;99.90;;;;;;5199759;28;20557;-54
2023/12/14 10:17:58;;;;;;;77.97;30.47;;;3.30;99.90;;;;;;5200680;28;20458;-53
2023/12/14 10:20:29;;;;;;;73.57;29.93;;;3.10;99.90;;;;;;5200477;28;20933;-51
2023/12/14 10:23:00;;;;;;;63.67;28.37;;;3.20;99.90;;;;;;5203518;28;20438;-52
2023/12/14 10:25:35;;;;;;;61.03;28.17;;;3.20;99.90;;;;;;5203200;28;20438;-52
2023/12/14 10:28:09;;;;;;;79.57;31.07;;;3.20;99.90;;;;;;5203169;28;20180;-51
2023/12/14 10:30:41;;;;;;;63.50;29.07;;;3.20;99.90;;;;;;5199363;28;20440;-51
2023/12/14 10:33:13;;;;;;;56.60;26.37;;;3.20;99.90;;;;;;5201937;28;20460;-52
2023/12/14 10:35:46;;;;;;;68.80;27.30;;;3.20;99.90;;;;;;5205219;28;20480;-51
2023/12/14 10:38:17;;;;;;;58.33;26.83;;;3.20;99.90;;;;;;5206555;28;20442;-53
2023/12/14 10:40:53;;;;;;;53.40;25.10;;;3.10;99.90;;;;;;5200421;28;20508;-50
2023/12/14 10:43:24;;;;;;;58.50;27.00;;;3.00;99.90;;;;;;5199693;28;20488;-52
2023/12/14 10:45:56;;;;;;;91.57;32.97;;;3.00;99.90;;;;;;5202209;28;20441;-51
2023/12/14 10:48:29;;;;;;;86.43;32.47;;;3.00;99.90;;;;;;5205714;28;20442;-51
2023/12/14 10:51:02;;;;;;;78.40;28.83;;;3.10;99.90;;;;;;5204674;28;20546;-51
2023/12/14 10:53:34;;;;;;;61.43;25.90;;;3.00;99.90;;;;;;5204266;28;20474;-51
2023/12/14 10:56:12;;;;;;;65.70;31.07;;;3.00;99.90;;;;;;5191794;28;20448;-52
2023/12/14 10:58:52;;;;;;;82.73;31.40;;;3.00;99.90;;;;;;5206051;28;20469;-52
2023/12/14 11:01:24;;;;;;;69.50;26.97;;;3.00;99.90;;;;;;5203625;28;20581;-51
2023/12/14 11:03:56;;;;;;;64.53;27.27;;;3.10;99.90;;;;;;5204026;28;20855;-52
2023/12/14 11:06:33;;;;;;;70.10;27.60;;;3.10;99.90;;;;;;5221050;28;20481;-52
2023/12/14 11:09:10;;;;;;;56.30;27.83;;;3.10;99.90;;;;;;5208102;28;20484;-51
2023/12/14 11:11:56;;;;;;;77.43;27.67;;;3.10;99.90;;;;;;5205650;28;20453;-52
2023/12/14 11:14:32;;;;;;;54.53;25.07;;;3.10;99.90;;;;;;5202014;28;20465;-52
2023/12/14 11:17:07;;;;;;;58.10;23.90;;;3.10;99.90;;;;;;5203087;28;20852;-51
2023/12/14 11:19:38;;;;;;;50.50;24.13;;;3.10;99.90;;;;;;5202495;28;20442;-52
2023/12/14 11:22:15;;;;;;;62.93;25.00;;;3.20;99.90;;;;;;5202966;28;20438;-52
2023/12/14 11:24:53;;;;;;;50.37;22.53;;;3.20;99.90;;;;;;5204981;28;20449;-52
2023/12/14 11:27:31;;;;;;;64.73;27.10;;;3.20;99.90;;;;;;5202861;28;20556;-52
2023/12/14 11:30:09;;;;;;;44.30;22.07;;;3.30;99.90;;;;;;5202962;28;20496;-54
2023/12/14 11:32:39;;;;;;;54.00;24.40;;;3.20;99.90;;;;;;5204776;28;20477;-52
2023/12/14 11:35:12;;;;;;;60.23;27.00;;;3.10;99.90;;;;;;5206982;28;20434;-53
2023/12/14 11:37:42;;;;;;;52.50;24.57;;;3.20;99.90;;;;;;5207389;28;20199;-52
2023/12/14 11:40:16;;;;;;;66.10;28.33;;;3.10;99.90;;;;;;5202146;28;20966;-52
2023/12/14 11:42:56;;;;;;;52.83;25.00;;;3.20;99.90;;;;;;5199576;28;20207;-52
2023/12/14 11:45:28;;;;;;;52.97;26.13;;;3.10;99.90;;;;;;5193951;28;20439;-53
2023/12/14 11:47:58;;;;;;;49.20;23.27;;;3.20;99.90;;;;;;5196085;28;20458;-54
2023/12/14 11:50:29;;;;;;;47.53;23.90;;;3.20;99.90;;;;;;5181755;28;20451;-51
2023/12/14 11:53:04;;;;;;;73.93;29.60;;;3.20;99.90;;;;;;5194670;28;20208;-52
2023/12/14 11:55:38;;;;;;;41.80;21.90;;;3.40;99.90;;;;;;5199604;28;20191;-52
2023/12/14 11:58:11;;;;;;;52.63;23.23;;;3.40;99.90;;;;;;5205786;28;20436;-53
2023/12/14 12:00:45;;;;;;;52.13;24.00;;;3.30;99.90;;;;;;5204914;28;20464;-52
2023/12/14 12:03:22;;;;;;;49.63;21.33;;;3.30;99.90;;;;;;5199721;28;20500;-54
2023/12/14 12:05:53;;;;;;;41.70;20.10;;;3.30;99.90;;;;;;5196431;28;20540;-52
2023/12/14 12:08:24;;;;;;;43.20;21.50;;;3.30;99.90;;;;;;5203314;28;20537;-53
2023/12/14 12:10:57;;;;;;;31.87;19.10;;;3.40;99.90;;;;;;5204016;28;20187;-52
2023/12/14 12:13:28;;;;;;;33.03;18.73;;;3.30;99.90;;;;;;5204230;28;20216;-51
2023/12/14 12:15:59;;;;;;;33.60;19.20;;;3.20;99.90;;;;;;5204207;28;22494;-53
2023/12/14 12:18:30;;;;;;;33.00;18.50;;;3.20;99.90;;;;;;5204754;28;20441;-52
2023/12/14 12:21:05;;;;;;;32.80;18.33;;;3.30;99.90;;;;;;5203283;28;20439;-51
2023/12/14 12:23:36;;;;;;;31.00;18.00;;;3.30;99.90;;;;;;5205404;28;20780;-54
2023/12/14 12:26:06;;;;;;;37.93;19.27;;;3.40;99.90;;;;;;5204695;28;20443;-53
2023/12/14 12:28:39;;;;;;;37.40;20.30;;;3.40;99.90;;;;;;5204925;28;20191;-53
2023/12/14 12:31:10;;;;;;;33.93;17.17;;;3.40;99.90;;;;;;5203280;28;20457;-52
2023/12/14 12:33:44;;;;;;;27.67;17.70;;;3.50;99.90;;;;;;5202426;28;20469;-52
2023/12/14 12:36:15;;;;;;;26.47;16.70;;;3.50;99.90;;;;;;5205359;28;20212;-54
2023/12/14 12:38:46;;;;;;;31.00;18.27;;;3.40;99.90;;;;;;5200478;28;20437;-53
2023/12/14 12:41:17;;;;;;;32.03;17.60;;;3.40;99.90;;;;;;5205560;28;20450;-52
2023/12/14 12:43:48;;;;;;;34.90;18.33;;;3.50;99.90;;;;;;5201295;28;20200;-51
2023/12/14 12:46:19;;;;;;;34.70;17.00;;;3.50;99.90;;;;;;5195313;28;20475;-53
2023/12/14 12:48:51;;;;;;;28.97;17.47;;;3.60;99.90;;;;;;5198607;28;20197;-54
2023/12/14 12:51:22;;;;;;;23.00;15.17;;;3.70;99.90;;;;;;5201524;28;20180;-53
2023/12/14 12:53:53;;;;;;;22.17;14.37;;;3.60;99.90;;;;;;5203599;28;20469;-53
2023/12/14 12:56:27;;;;;;;22.93;14.43;;;3.50;99.90;;;;;;5203175;28;20248;-52